WEATHER DATA

TODAY
Time Temp. Dewp. Hum. Wind dir Wind speed Wind gust Bar. 1h Prec. 24h Prec.
00:09 6.7 2.6 75 210 3.1 4.7 1027.3 0.0000 0.0000
00:19 6.7 2.6 75 210 3.1 5 1027.1 0.0000 0.0000
00:29 6.5 2.4 75 214 3.1 5 1027 0.0000 0.0000
00:39 6.4 2.5 76 211 3.1 4.7 1027 0.0000 0.0000
00:49 6.3 2.4 76 208 3.1 4.2 1026.9 0.0000 0.0000
00:59 6.2 2.3 76 208 3.1 4.4 1026.8 0.0000 0.0000
01:10 6 2.1 76 208 3.3 5 1026.8 0.0000 0.0000
01:19 5.9 2.2 77 207 3.1 4.2 1026.7 0.0000 0.0000
01:29 5.9 2.2 77 207 3.1 4.4 1026.6 0.0000 0.0000
01:40 5.7 2 77 206 3.1 4.4 1026.6 0.0000 0.0000
01:50 5.7 2 77 209 3.1 5 1026.5 0.0000 0.0000
01:59 5.6 1.9 77 209 3.1 4.4 1026.5 0.0000 0.0000
02:10 5.5 1.8 77 210 2.8 4.7 1026.5 0.0000 0.0000
02:20 5.4 1.7 77 208 3.1 4.7 1026.3 0.0000 0.0000
02:30 5.3 1.6 77 207 3.1 4.4 1026.1 0.0000 0.0000
02:40 5.1 1.4 77 211 2.8 4.4 1026.4 0.0000 0.0000
02:50 4.9 1.2 77 210 3.1 4.4 1026.3 0.0000 0.0000
03:00 4.8 1.1 77 207 3.1 4.7 1026.4 0.0000 0.0000
03:10 4.7 1.2 78 208 3.1 4.4 1026.3 0.0000 0.0000
03:20 4.5 1 78 206 3.1 4.4 1026.1 0.0000 0.0000
03:31 4.4 0.9 78 217 3.1 4.4 1026.1 0.0000 0.0000
03:40 4.3 0.8 78 208 3.1 4.7 1026.1 0.0000 0.0000
04:01 4 0.7 79 206 3.1 4.4 1026.1 0.0000 0.0000
04:11 4 0.7 79 207 3.1 4.2 1026.3 0.0000 0.0000
04:21 4 0.7 79 209 3.3 4.7 1026.4 0.0000 0.0000
04:31 3.9 0.6 79 210 3.1 4.7 1026.5 0.0000 0.0000
04:41 3.8 0.5 79 210 3.3 4.4 1026.6 0.0000 0.0000
04:51 3.7 0.6 80 210 3.1 4.4 1026.7 0.0000 0.0000
05:01 3.6 0.5 80 212 3.3 5 1026.8 0.0000 0.0000
05:12 3.6 0.5 80 208 3.3 5 1026.8 0.0000 0.0000
05:22 3.5 0.4 80 209 3.3 4.7 1026.8 0.0000 0.0000
05:32 3.4 0.3 80 208 3.1 4.4 1026.9 0.0000 0.0000
05:41 3.3 0.2 80 210 3.3 5.8 1026.9 0.0000 0.0000
05:52 3.2 0.1 80 207 3.3 5 1026.9 0.0000 0.0000
06:10 2.9 -0.2 80 206 3.3 5 1027.2 0.0000 0.0000
06:19 2.9 -0.2 80 209 3.3 5 1027.2 0.0000 0.0000
06:29 2.9 -0.2 80 210 3.6 4.7 1027.2 0.0000 0.0000
06:40 2.8 -0.1 81 207 3.6 5.8 1027.2 0.0000 0.0000
06:50 2.8 -0.1 81 208 3.6 5.8 1027.3 0.0000 0.0000
07:00 2.9 0.1 82 208 4.2 5.6 1027.4 0.0000 0.0000
07:09 3 0.2 82 209 4.2 5.8 1027.5 0.0000 0.0000
07:20 3.2 0.4 82 211 4.2 6.4 1027.7 0.0000 0.0000
07:30 3.6 1 83 208 3.1 5.6 1027.7 0.0000 0.0000
07:40 4.1 1.6 84 198 2.8 4.7 1027.7 0.0000 0.0000
07:50 4.5 2.2 85 189 2.8 3.6 1027.8 0.0000 0.0000
08:00 4.9 2.6 85 193 2.5 3.3 1027.9 0.0000 0.0000
08:10 5.4 3.1 85 193 2.5 3.3 1027.9 0.0000 0.0000
08:20 6 3.7 85 183 1.9 3.3 1027.9 0.0000 0.0000
08:31 6.6 4.1 84 193 1.9 3.3 1028 0.0000 0.0000
08:41 7.2 4.7 84 201 2.5 3.6 1028.2 0.0000 0.0000
08:50 7.6 4.9 83 201 1.9 4.2 1028.1 0.0000 0.0000
09:01 8.1 5.2 82 202 1.9 3.1 1028 0.0000 0.0000
09:16 8.9 5.6 80 206 1.9 3.3 1027.7 0.0000 0.0000
09:22 9.2 5.9 80 210 1.7 2.8 1027.7 0.0000 0.0000
09:32 9.6 6.1 79 208 1.9 5.6 1027.5 0.0000 0.0000
09:42 10.1 6.4 78 204 1.7 3.6 1027.5 0.0000 0.0000
09:52 10.6 6.7 77 210 1.9 4.7 1027.4 0.0000 0.0000
10:03 11 6.7 75 207 1.9 4.4 1027.3 0.0000 0.0000
10:13 11.5 7 74 204 1.9 5 1027.1 0.0000 0.0000
10:22 11.9 7.2 73 211 2.5 4.4 1026.9 0.0000 0.0000
10:33 12.4 7.3 71 225 1.9 4.2 1026.8 0.0000 0.0000
10:43 12.9 7.6 70 216 2.5 6.7 1026.8 0.0000 0.0000
10:53 13.5 7.7 68 215 2.5 6.4 1026.6 0.0000 0.0000
11:03 14 8 67 212 2.8 5 1026.5 0.0000 0.0000
11:13 14.4 7.9 65 215 2.5 6.7 1026.4 0.0000 0.0000
11:24 15.1 7.9 62 221 2.8 8.1 1026.1 0.0000 0.0000
11:40 16 8 59 207 2.8 5.8 1025.8 0.0000 0.0000
11:49 16.3 7.8 57 214 2.8 6.4 1025.6 0.0000 0.0000
12:00 16.7 7.4 54 218 2.8 6.4 1025.5 0.0000 0.0000
12:10 17 7.1 52 217 2.8 5.8 1025.4 0.0000 0.0000
12:20 17.2 7.3 52 212 3.3 6.1 1025.2 0.0000 0.0000
12:25 17.2 6.7 50 209 3.6 5.8 1025.1 0.0000 0.0000
12:35 17.4 7.2 51 215 3.3 7.2 1025 0.0000 0.0000
12:45 17.5 7 50 218 3.3 6.7 1024.8 0.0000 0.0000
12:55 17.7 7.4 51 218 3.6 5.8 1024.7 0.0000 0.0000
13:06 17.7 7.4 51 217 3.3 7.2 1024.4 0.0000 0.0000
13:16 18.1 7.8 51 216 2.8 6.1 1024.3 0.0000 0.0000
13:25 18.1 7.2 49 219 2.8 5.6 1024.1 0.0000 0.0000
13:35 18.1 7.5 50 219 3.3 7.2 1024 0.0000 0.0000
13:46 18.2 7.3 49 221 3.1 6.4 1024 0.0000 0.0000
13:56 18.4 7.5 49 219 3.1 7.2 1023.9 0.0000 0.0000
14:06 18.8 7.9 49 224 3.6 7.8 1023.9 0.0000 0.0000
14:16 18.9 7.7 48 221 4.2 8.1 1023.9 0.0000 0.0000
14:26 18.9 8.3 50 218 4.2 8.6 1023.8 0.0000 0.0000
14:36 19 8.1 49 221 4.2 9.4 1023.8 0.0000 0.0000
14:46 19 7.8 48 221 3.1 6.4 1023.7 0.0000 0.0000
14:57 19.2 7.9 48 219 4.2 7.2 1023.6 0.0000 0.0000
15:06 19.4 7.8 47 225 3.1 6.7 1023.4 0.0000 0.0000
15:16 19.8 7.9 46 222 3.1 7.8 1023.3 0.0000 0.0000
15:27 19.8 7.5 45 218 3.3 8.1 1023.2 0.0000 0.0000
15:37 20.1 7.5 44 224 3.3 8.9 1023.1 0.0000 0.0000
15:47 20.2 7.2 43 219 3.1 6.7 1022.9 0.0000 0.0000
15:56 20.6 7.3 42 217 3.1 6.1 1022.8 0.0000 0.0000
16:07 20.7 7 41 225 3.1 6.1 1022.7 0.0000 0.0000
16:17 20.2 6.5 41 216 2.8 7.5 1022.8 0.0000 0.0000
16:27 19.5 6.3 42 217 1.9 5 1022.8 0.0000 0.0000
16:37 18.8 6.3 44 218 1.9 5 1022.9 0.0000 0.0000
16:47 18.3 6.2 45 217 1.9 4.4 1022.9 0.0000 0.0000
16:57 17.9 6.4 47 219 1.9 4.4 1022.9 0.0000 0.0000
17:07 17.5 6.4 48 220 2.5 4.7 1023 0.0000 0.0000
17:18 17.3 6.2 48 222 2.5 4.7 1022.9 0.0000 0.0000
17:28 17.1 6.3 49 225 2.5 4.4 1022.9 0.0000 0.0000
17:37 16.9 6.1 49 222 2.8 4.4 1022.8 0.0000 0.0000
17:48 16.7 5.9 49 225 2.5 3.6 1023 0.0000 0.0000
17:58 16.6 6.4 51 221 2.5 4.2 1023.3 0.0000 0.0000
18:08 16.4 6.2 51 221 2.5 4.4 1023.4 0.0000 0.0000
18:18 16.3 6.2 51 220 2.5 3.3 1023.3 0.0000 0.0000
18:29 16.1 6 51 219 2.8 4.7 1023.4 0.0000 0.0000
18:38 16 6.2 52 218 2.8 4.2 1023.4 0.0000 0.0000
18:48 15.8 6.3 53 218 2.5 3.6 1023.3 0.0000 0.0000
19:09 15.4 5.9 53 218 2.5 4.4 1023.4 0.0000 0.0000
19:19 15.2 6 54 213 2.5 3.6 1023.6 0.0000 0.0000
19:28 15.1 5.9 54 214 2.8 4.2 1023.6 0.0000 0.0000
19:39 15 5.8 54 212 2.8 4.2 1023.7 0.0000 0.0000
19:49 14.9 5.7 54 215 2.5 4.2 1023.3 0.0000 0.0000
19:59 14.8 5.9 55 212 2.5 4.2 1023.3 0.0000 0.0000
20:09 14.7 5.8 55 212 2.8 4.2 1023.3 0.0000 0.0000
20:19 14.7 6 56 213 2.5 3.6 1023.3 0.0000 0.0000
20:29 14.5 5.8 56 214 2.5 3.6 1023.4 0.0000 0.0000
20:39 14.3 5.9 57 213 2.5 4.2 1023.6 0.0000 0.0000
20:50 14.1 5.7 57 213 2.5 3.6 1023.6 0.0000 0.0000
21:00 13.9 5.8 58 209 2.5 3.6 1023.7 0.0000 0.0000
21:09 13.8 5.7 58 212 2.8 4.2 1023.7 0.0000 0.0000
21:19 13.6 5.7 59 209 2.8 4.2 1023.7 0.0000 0.0000
21:30 13.6 5.7 59 211 2.5 3.6 1023.7 0.0000 0.0000
21:40 13.3 5.7 60 212 2.8 4.2 1023.6 0.0000 0.0000
21:50 13 5.4 60 211 2.8 4.7 1023.6 0.0000 0.0000
22:00 12.9 5.3 60 214 2.5 3.6 1023.3 0.0000 0.0000
22:10 12.7 5.1 60 211 2.8 4.2 1023.2 0.0000 0.0000
22:20 12.6 5.3 61 212 2.5 3.6 1023.2 0.0000 0.0000
22:30 12.4 5.1 61 212 2.5 3.6 1023 0.0000 0.0000
22:41 12.4 5.1 61 209 2.8 4.2 1023 0.0000 0.0000
22:51 12.2 4.9 61 207 2.8 4.2 1023 0.0000 0.0000
23:00 12.1 4.8 61 209 2.8 3.6 1023 0.0000 0.0000

DAY STATISTIC

2021-04-13
TEMPERATURE
AVERAGE
11.5
HIGH
20.7
16:07
LOW
2.8
06:40
PRESSURE
AVERAGE
1025.3
HIGH
1028.2
08:41
LOW
1022.7
16:07
DEWPOINT
AVERAGE
4.6
HIGH
8.3
14:26
LOW
-0.2
06:10
HUMIDITY
AVERAGE
65
HIGH
85
07:50
LOW
41
16:07
WIND SPEED
AVERAGE
2.9
HIGH
4.2
07:00
WIND GUST
AVERAGE
5.0
HIGH
9.4
14:36
WIND DIRECTION
PREVAILING
SW
91.8%
N
0.0
NE
0.0
E
0.0
SE
0.0
S
8.2
SW
91.8
W
0.0
NW
0.0
PRECIPITATION
RAIN HOUR
0.0
RAIN DAY
0.0
TEMPERATURE (°C)
LOW
2.8
HIGH
20.7
AVERAGE
11.5
PRESSURE (hpa)
LOW
1022.7
HIGH
1028.2
AVERAGE
1025.3
DEVICE